createdAt,value
2023-02-19T00:01:48.889Z,96155.44
2023-02-19T00:04:18.232Z,96145.06
2023-02-19T00:06:46.588Z,96153.66
2023-02-19T00:09:19.069Z,96144.75
2023-02-19T00:11:47.801Z,96138.84
2023-02-19T00:14:18.616Z,96140.09
2023-02-19T00:16:46.611Z,96144.28
2023-02-19T00:19:16.188Z,96145.31
2023-02-19T00:21:43.813Z,96141.03
2023-02-19T00:24:13.058Z,96147.91
2023-02-19T00:26:43.593Z,96117.09
2023-02-19T00:29:14.824Z,96079.31
2023-02-19T00:31:43.114Z,96124.41
2023-02-19T00:34:11.518Z,96123.19
2023-02-19T00:36:40.649Z,96137.63
2023-02-19T00:39:09.885Z,96147.34
2023-02-19T00:41:37.371Z,96138.28
2023-02-19T00:44:08.613Z,96143.03
2023-02-19T00:46:37.957Z,96131.66
2023-02-19T00:49:06.708Z,96146.75
2023-02-19T00:51:36.015Z,96127.69
2023-02-19T00:54:04.129Z,96139.97
2023-02-19T00:56:31.740Z,96122.03
2023-02-19T00:58:59.254Z,96133.44
2023-02-19T01:01:28.231Z,96116.94
2023-02-19T01:03:55.767Z,96116.03
2023-02-19T01:06:23.424Z,96105.88
2023-02-19T01:08:51.158Z,96105.44
2023-02-19T01:11:20.203Z,96074.75
2023-02-19T01:13:47.716Z,96110.41
2023-02-19T01:16:18.180Z,96113.00
2023-02-19T01:18:47.633Z,96117.41
2023-02-19T01:21:16.802Z,96122.13
2023-02-19T01:23:44.932Z,96113.56
2023-02-19T01:26:15.448Z,96117.41
2023-02-19T01:28:43.212Z,96125.53
2023-02-19T01:31:15.363Z,96118.22
2023-02-19T01:33:47.683Z,96121.00
2023-02-19T01:36:15.735Z,96112.91
2023-02-19T01:38:43.740Z,96097.69
2023-02-19T01:41:13.907Z,96110.31
2023-02-19T01:43:59.492Z,96121.94
2023-02-19T01:46:28.159Z,96129.81
2023-02-19T01:49:00.176Z,96132.78
2023-02-19T01:51:28.633Z,96094.75
2023-02-19T01:54:00.043Z,96097.78
2023-02-19T01:56:29.015Z,96039.69
2023-02-19T01:58:57.996Z,96104.19
2023-02-19T02:01:25.521Z,96061.00
2023-02-19T02:03:53.313Z,96096.88
2023-02-19T02:06:24.884Z,96093.72
2023-02-19T02:09:11.873Z,96068.81
2023-02-19T02:11:41.415Z,96084.44
2023-02-19T02:14:08.960Z,96086.59
2023-02-19T02:16:45.311Z,96084.25
2023-02-19T02:19:32.970Z,96094.72
2023-02-19T02:22:08.587Z,96087.50
2023-02-19T02:25:07.414Z,96085.56
2023-02-19T02:27:48.320Z,96100.81
2023-02-19T02:30:32.897Z,96105.88
2023-02-19T02:33:12.619Z,96090.00
2023-02-19T02:35:45.503Z,96108.59
2023-02-19T02:38:15.025Z,96114.25
2023-02-19T02:40:45.237Z,96112.34
2023-02-19T02:43:13.178Z,96109.97
2023-02-19T02:45:42.465Z,96116.16
2023-02-19T02:48:20.333Z,96130.53
2023-02-19T02:50:53.045Z,96109.78
2023-02-19T02:53:41.127Z,96115.06
2023-02-19T02:56:11.325Z,96102.00
2023-02-19T02:58:39.491Z,96105.34
2023-02-19T03:01:30.127Z,96107.63
2023-02-19T03:04:03.255Z,96115.06
2023-02-19T03:06:34.551Z,96098.59
2023-02-19T03:09:10.221Z,96104.16
2023-02-19T03:11:58.602Z,96104.81
2023-02-19T03:14:50.914Z,96118.00
2023-02-19T03:17:42.368Z,96112.81
2023-02-19T03:20:14.650Z,96102.56
2023-02-19T03:22:45.659Z,96103.78
2023-02-19T03:25:34.951Z,96110.13
2023-02-19T03:28:04.801Z,96103.34
2023-02-19T03:30:35.928Z,96108.53
2023-02-19T03:33:10.550Z,96105.50
2023-02-19T03:35:42.244Z,96117.78
2023-02-19T03:38:18.511Z,96116.44
2023-02-19T03:40:55.364Z,96109.22
2023-02-19T03:43:28.215Z,96119.25
2023-02-19T03:46:04.210Z,96062.94
2023-02-19T03:48:35.681Z,96131.47
2023-02-19T03:51:18.978Z,96121.16
2023-02-19T03:53:54.747Z,96136.75
2023-02-19T03:56:29.558Z,96108.19
2023-02-19T03:59:01.478Z,96140.78
2023-02-19T04:01:33.332Z,96120.03
2023-02-19T04:04:08.938Z,96147.81
2023-02-19T04:06:38.797Z,96144.06
2023-02-19T04:09:12.398Z,96145.41
2023-02-19T04:11:40.213Z,96138.75
2023-02-19T04:14:11.788Z,96158.31
2023-02-19T04:16:42.894Z,96156.84
2023-02-19T04:19:15.059Z,96163.81
2023-02-19T04:21:44.125Z,96151.84
2023-02-19T04:24:17.431Z,96162.34
2023-02-19T04:26:46.040Z,96160.22
2023-02-19T04:29:13.487Z,96118.22
2023-02-19T04:31:41.147Z,96171.50
2023-02-19T04:34:08.666Z,96175.91
2023-02-19T04:36:37.479Z,96180.53
2023-02-19T04:39:05.153Z,96183.69
2023-02-19T04:41:32.586Z,96174.44
2023-02-19T04:44:00.028Z,96182.09
2023-02-19T04:46:27.508Z,96190.66
2023-02-19T04:48:55.037Z,96195.75
2023-02-19T04:51:22.537Z,96203.31
2023-02-19T04:53:51.357Z,96196.91
2023-02-19T04:56:19.160Z,96199.69
2023-02-19T04:58:46.623Z,96206.69
2023-02-19T05:01:14.587Z,96185.25
2023-02-19T05:03:42.430Z,96196.41
2023-02-19T05:06:11.726Z,96201.84
2023-02-19T05:08:39.351Z,96185.47
2023-02-19T05:11:11.114Z,96165.00
2023-02-19T05:13:38.793Z,96210.28
2023-02-19T05:16:08.673Z,96161.88
2023-02-19T05:18:36.186Z,96207.81
2023-02-19T05:21:03.664Z,96191.44
2023-02-19T05:23:31.115Z,96207.22
2023-02-19T05:25:58.534Z,96215.78
2023-02-19T05:28:29.381Z,96219.63
2023-02-19T05:30:57.857Z,96217.69
2023-02-19T05:33:26.839Z,96204.34
2023-02-19T05:35:56.607Z,96234.72
2023-02-19T05:38:25.081Z,96239.69
2023-02-19T05:40:52.586Z,96235.28
2023-02-19T05:43:19.993Z,96249.06
2023-02-19T05:45:48.747Z,96232.69
2023-02-19T05:48:16.486Z,96223.75
2023-02-19T05:50:43.903Z,96236.28
2023-02-19T05:53:11.446Z,96259.63
2023-02-19T05:55:38.878Z,96251.06
2023-02-19T05:58:06.330Z,96237.97
2023-02-19T06:00:34.879Z,96257.59
2023-02-19T06:03:03.635Z,96250.84
2023-02-19T06:05:31.119Z,96249.06
2023-02-19T06:07:58.564Z,96262.47
2023-02-19T06:10:25.984Z,96263.09
2023-02-19T06:12:54.234Z,96255.63
2023-02-19T06:15:21.976Z,96251.81
2023-02-19T06:17:49.984Z,96249.31
2023-02-19T06:20:19.082Z,96268.72
2023-02-19T06:22:46.489Z,96272.72
2023-02-19T06:25:13.901Z,96289.63
2023-02-19T06:27:41.324Z,96288.03
2023-02-19T06:30:10.077Z,96291.63
2023-02-19T06:32:37.581Z,96298.84
2023-02-19T06:35:05.651Z,96295.47
2023-02-19T06:37:34.447Z,96307.28
2023-02-19T06:40:01.896Z,96311.91
2023-02-19T06:42:32.664Z,96310.09
2023-02-19T06:45:00.132Z,96305.91
2023-02-19T06:47:27.609Z,96293.47
2023-02-19T06:49:55.051Z,96288.28
2023-02-19T06:52:22.469Z,96298.47
2023-02-19T06:54:51.243Z,96309.53
2023-02-19T06:57:19.702Z,96317.88
2023-02-19T06:59:47.169Z,96272.53
2023-02-19T07:02:14.707Z,96313.69
2023-02-19T07:04:42.125Z,96314.50
2023-02-19T07:07:12.526Z,96313.78
2023-02-19T07:09:39.950Z,96322.06
2023-02-19T07:12:09.979Z,96323.28
2023-02-19T07:14:37.414Z,96329.81
2023-02-19T07:17:04.828Z,96340.78
2023-02-19T07:19:32.308Z,96350.16
2023-02-19T07:21:59.744Z,96353.53
2023-02-19T07:24:27.184Z,96348.78
2023-02-19T07:26:54.649Z,96347.22
2023-02-19T07:29:23.669Z,96336.03
2023-02-19T07:31:51.134Z,96354.91
2023-02-19T07:34:18.588Z,96364.69
2023-02-19T07:36:46.035Z,96370.03
2023-02-19T07:39:15.511Z,96373.63
2023-02-19T07:41:42.920Z,96366.66
2023-02-19T07:44:13.369Z,96366.28
2023-02-19T07:46:42.183Z,96374.19
2023-02-19T07:49:09.736Z,96366.41
2023-02-19T07:51:39.740Z,96376.03
2023-02-19T07:54:07.643Z,96373.44
2023-02-19T07:56:35.132Z,96385.16
2023-02-19T07:59:02.556Z,96381.41
2023-02-19T08:01:43.935Z,96386.59
2023-02-19T08:04:14.930Z,96394.22
2023-02-19T08:06:42.869Z,96411.47
2023-02-19T08:09:10.563Z,96417.88
2023-02-19T08:11:55.824Z,96413.91
2023-02-19T08:14:25.970Z,96411.56
2023-02-19T08:16:54.148Z,96428.03
2023-02-19T08:19:23.164Z,96416.75
2023-02-19T08:21:50.857Z,96427.59
2023-02-19T08:24:18.285Z,96438.75
2023-02-19T08:26:45.839Z,96402.91
2023-02-19T08:29:13.368Z,96435.38
2023-02-19T08:31:40.952Z,96437.75
2023-02-19T08:34:08.422Z,96442.16
2023-02-19T08:36:37.180Z,96446.34
2023-02-19T08:39:04.745Z,96442.34
2023-02-19T08:41:32.161Z,96453.75
2023-02-19T08:43:59.570Z,96461.09
2023-02-19T08:46:27.022Z,96456.72
2023-02-19T08:48:54.461Z,96443.00
2023-02-19T08:51:21.929Z,96462.81
2023-02-19T08:53:50.713Z,96467.00
2023-02-19T08:56:18.627Z,96466.44
2023-02-19T08:58:46.539Z,96458.00
2023-02-19T09:01:16.241Z,96473.63
2023-02-19T09:03:44.199Z,96477.03
2023-02-19T09:06:15.583Z,96485.38
2023-02-19T09:08:43.040Z,96477.22
2023-02-19T09:11:12.178Z,96474.06
2023-02-19T09:13:39.778Z,96479.78
2023-02-19T09:16:07.297Z,96476.03
2023-02-19T09:18:35.321Z,96480.97
2023-02-19T09:21:04.446Z,96475.78
2023-02-19T09:23:33.462Z,96484.09
2023-02-19T09:26:03.099Z,96482.28
2023-02-19T09:28:31.884Z,96489.78
2023-02-19T09:31:04.931Z,96496.56
2023-02-19T09:33:32.579Z,96479.66
2023-02-19T09:36:00.228Z,96488.22
2023-02-19T09:38:27.694Z,96497.56
2023-02-19T09:40:55.121Z,96489.66
2023-02-19T09:43:27.430Z,96498.00
2023-02-19T09:46:23.394Z,96494.97
2023-02-19T09:48:51.972Z,96500.47
2023-02-19T09:51:19.768Z,96459.19
2023-02-19T09:53:51.178Z,96482.59
2023-02-19T09:56:18.784Z,96499.53
2023-02-19T09:58:49.674Z,96503.50
2023-02-19T10:01:19.760Z,96497.25
2023-02-19T10:03:49.455Z,96515.69
2023-02-19T10:06:21.634Z,96522.38
2023-02-19T10:08:50.607Z,96528.16
2023-02-19T10:11:18.621Z,96490.59
2023-02-19T10:13:49.932Z,96502.50
2023-02-19T10:16:22.628Z,96504.16
2023-02-19T10:18:50.281Z,96503.63
2023-02-19T10:21:21.407Z,96522.81
2023-02-19T10:23:52.308Z,96524.09
2023-02-19T10:26:20.815Z,96535.72
2023-02-19T10:28:48.274Z,96540.59
2023-02-19T10:31:20.887Z,96542.97
2023-02-19T10:33:51.156Z,96533.97
2023-02-19T10:36:29.232Z,96536.75
2023-02-19T10:38:58.692Z,96551.06
2023-02-19T10:41:28.024Z,96551.63
2023-02-19T10:43:59.327Z,96554.38
2023-02-19T10:46:30.786Z,96563.75
2023-02-19T10:49:00.384Z,96573.66
2023-02-19T10:51:34.028Z,96555.56
2023-02-19T10:54:07.444Z,96554.97
2023-02-19T10:56:35.068Z,96564.00
2023-02-19T10:59:23.154Z,96558.53
2023-02-19T11:02:00.471Z,96558.00
2023-02-19T11:04:29.860Z,96582.59
2023-02-19T11:06:58.235Z,96582.66
2023-02-19T11:09:29.391Z,96590.63
2023-02-19T11:11:59.227Z,96585.84
2023-02-19T11:14:28.878Z,96581.25
2023-02-19T11:16:59.789Z,96584.13
2023-02-19T11:19:37.282Z,96597.03
2023-02-19T11:22:20.724Z,96596.16
2023-02-19T11:24:50.980Z,96567.25
2023-02-19T11:27:21.523Z,96612.78
2023-02-19T11:29:49.533Z,96617.25
2023-02-19T11:32:30.641Z,96616.38
2023-02-19T11:35:19.617Z,96623.22
2023-02-19T11:37:58.926Z,96614.72
2023-02-19T11:40:38.866Z,96615.50
2023-02-19T11:43:19.390Z,96612.56
2023-02-19T11:45:53.038Z,96627.28
2023-02-19T11:48:32.803Z,96618.13
2023-02-19T11:51:21.286Z,96636.03
2023-02-19T11:53:55.762Z,96641.91
2023-02-19T11:56:33.864Z,96637.97
2023-02-19T11:59:04.803Z,96632.97
2023-02-19T12:02:07.441Z,96620.84
2023-02-19T12:05:01.467Z,96623.81
2023-02-19T12:07:54.037Z,96611.69
2023-02-19T12:10:29.352Z,96614.88
2023-02-19T12:13:09.466Z,96617.56
2023-02-19T12:15:53.221Z,96625.13
2023-02-19T12:18:54.330Z,96620.03
2023-02-19T12:21:35.284Z,96614.97
2023-02-19T12:24:21.461Z,96610.38
2023-02-19T12:27:00.287Z,96611.69
2023-02-19T12:29:52.808Z,96615.28
2023-02-19T12:32:41.052Z,96612.78
2023-02-19T12:35:47.289Z,96616.16
2023-02-19T12:38:23.234Z,96616.59
2023-02-19T12:41:13.001Z,96602.72
2023-02-19T12:43:45.826Z,96590.41
2023-02-19T12:46:17.047Z,96599.41
2023-02-19T12:48:52.734Z,96600.50
2023-02-19T12:51:24.148Z,96606.34
2023-02-19T12:53:56.955Z,96592.88
2023-02-19T12:56:29.634Z,96594.09
2023-02-19T12:59:02.011Z,96597.03
2023-02-19T13:01:41.524Z,96614.56
2023-02-19T13:04:21.490Z,96612.03
2023-02-19T13:06:54.680Z,96606.13
2023-02-19T13:09:30.465Z,96599.09
2023-02-19T13:12:02.731Z,96616.00
2023-02-19T13:14:35.042Z,96615.06
2023-02-19T13:17:20.850Z,96620.31
2023-02-19T13:19:51.626Z,96610.94
2023-02-19T13:22:44.929Z,96616.81
2023-02-19T13:25:16.418Z,96616.94
2023-02-19T13:28:19.142Z,96624.72
2023-02-19T13:31:19.480Z,96632.56
2023-02-19T13:33:59.456Z,96639.38
2023-02-19T13:36:28.114Z,96637.63
2023-02-19T13:38:58.015Z,96624.81
2023-02-19T13:41:32.295Z,96625.81
2023-02-19T13:44:03.342Z,96633.81
2023-02-19T13:46:37.677Z,96641.94
2023-02-19T13:49:44.308Z,96628.72
2023-02-19T13:52:42.773Z,96626.28
2023-02-19T13:55:51.955Z,96623.44
2023-02-19T13:59:01.296Z,96625.03
2023-02-19T14:02:05.634Z,96620.41
2023-02-19T14:04:50.184Z,96634.56
2023-02-19T14:07:52.372Z,96638.97
2023-02-19T14:10:57.954Z,96650.56
2023-02-19T14:14:09.497Z,96644.19
2023-02-19T14:17:07.378Z,96647.59
2023-02-19T14:19:50.084Z,96645.84
2023-02-19T14:23:03.357Z,96643.03
2023-02-19T14:25:53.341Z,96656.44
2023-02-19T14:28:29.854Z,96653.66
2023-02-19T14:31:00.828Z,96664.47
2023-02-19T14:33:30.628Z,96673.66
2023-02-19T14:36:05.617Z,96680.28
2023-02-19T14:38:37.953Z,96674.56
2023-02-19T14:41:07.144Z,96693.56
2023-02-19T14:43:36.082Z,96692.75
2023-02-19T14:46:08.910Z,96689.97
2023-02-19T14:48:40.061Z,96689.97
2023-02-19T14:51:15.526Z,96695.75
2023-02-19T14:53:46.284Z,96685.44
2023-02-19T14:56:21.936Z,96702.00
2023-02-19T14:59:06.733Z,96706.16
2023-02-19T15:01:34.187Z,96705.59
2023-02-19T15:04:03.545Z,96714.94
2023-02-19T15:06:33.285Z,96698.38
2023-02-19T15:09:05.980Z,96705.13
2023-02-19T15:11:35.812Z,96710.72
2023-02-19T15:14:05.971Z,96713.91
2023-02-19T15:16:36.944Z,96722.47
2023-02-19T15:19:07.409Z,96722.09
2023-02-19T15:21:40.177Z,96721.88
2023-02-19T15:24:08.254Z,96709.50
2023-02-19T15:26:38.284Z,96698.38
2023-02-19T15:29:11.653Z,96703.19
2023-02-19T15:31:45.879Z,96698.22
2023-02-19T15:34:17.697Z,96684.84
2023-02-19T15:36:47.542Z,96697.25
2023-02-19T15:39:20.706Z,96694.09
2023-02-19T15:41:54.436Z,96693.16
2023-02-19T15:44:35.329Z,96690.94
2023-02-19T15:47:10.418Z,96689.19
2023-02-19T15:49:44.918Z,96665.88
2023-02-19T15:52:22.585Z,96666.47
2023-02-19T15:54:56.157Z,96657.75
2023-02-19T15:57:27.193Z,96667.47
2023-02-19T16:00:01.997Z,96667.88
2023-02-19T16:02:29.976Z,96656.69
2023-02-19T16:04:58.208Z,96650.56
2023-02-19T16:07:28.882Z,96652.13
2023-02-19T16:10:20.780Z,96649.13
2023-02-19T16:12:58.907Z,96633.41
2023-02-19T16:15:27.604Z,96630.47
2023-02-19T16:17:55.798Z,96652.50
2023-02-19T16:20:27.525Z,96649.91
2023-02-19T16:23:02.362Z,96647.75
2023-02-19T16:25:37.462Z,96645.31
2023-02-19T16:28:12.994Z,96646.50
2023-02-19T16:30:40.897Z,96654.09
2023-02-19T16:33:22.811Z,96658.44
2023-02-19T16:35:52.177Z,96651.50
2023-02-19T16:38:21.674Z,96660.28
2023-02-19T16:41:13.669Z,96674.59
2023-02-19T16:43:43.007Z,96675.59
2023-02-19T16:46:12.842Z,96673.41
2023-02-19T16:48:40.506Z,96659.50
2023-02-19T16:51:09.032Z,96687.00
2023-02-19T16:53:37.906Z,96688.44
2023-02-19T16:56:05.860Z,96666.38
2023-02-19T16:58:33.257Z,96695.59
2023-02-19T17:01:01.602Z,96700.59
2023-02-19T17:03:29.106Z,96708.19
2023-02-19T17:05:57.379Z,96678.78
2023-02-19T17:08:33.787Z,96709.59
2023-02-19T17:11:04.412Z,96713.19
2023-02-19T17:13:31.894Z,96718.97
2023-02-19T17:15:59.979Z,96731.91
2023-02-19T17:18:27.981Z,96739.69
2023-02-19T17:21:00.340Z,96732.91
2023-02-19T17:23:27.747Z,96744.88
2023-02-19T17:25:55.208Z,96741.69
2023-02-19T17:28:23.973Z,96739.09
2023-02-19T17:30:51.389Z,96750.66
2023-02-19T17:33:18.814Z,96757.22
2023-02-19T17:35:46.252Z,96759.81
2023-02-19T17:38:14.308Z,96762.63
2023-02-19T17:40:42.053Z,96724.44
2023-02-19T17:43:09.476Z,96759.03
2023-02-19T17:45:38.239Z,96770.59
2023-02-19T17:48:06.512Z,96761.03
2023-02-19T17:50:33.983Z,96755.47
2023-02-19T17:53:01.426Z,96771.63
2023-02-19T17:55:28.907Z,96773.19
2023-02-19T17:57:56.447Z,96779.00
2023-02-19T18:00:26.233Z,96789.94
2023-02-19T18:02:55.643Z,96801.28
2023-02-19T18:05:23.991Z,96800.28
2023-02-19T18:07:51.659Z,96793.50
2023-02-19T18:10:20.682Z,96801.13
2023-02-19T18:12:48.350Z,96793.13
2023-02-19T18:15:18.329Z,96793.53
2023-02-19T18:17:45.939Z,96790.94
2023-02-19T18:20:16.750Z,96780.59
2023-02-19T18:22:44.185Z,96806.09
2023-02-19T18:25:12.016Z,96795.13
2023-02-19T18:27:39.573Z,96798.13
2023-02-19T18:30:08.428Z,96804.50
2023-02-19T18:32:36.016Z,96789.94
2023-02-19T18:35:03.990Z,96801.72
2023-02-19T18:37:33.773Z,96813.66
2023-02-19T18:40:02.369Z,96807.28
2023-02-19T18:42:30.036Z,96815.25
2023-02-19T18:44:57.572Z,96787.97
2023-02-19T18:47:26.692Z,96812.69
2023-02-19T18:49:56.860Z,96806.28
2023-02-19T18:52:26.073Z,96809.06
2023-02-19T18:54:57.193Z,96814.84
2023-02-19T18:57:26.026Z,96819.25
2023-02-19T18:59:53.775Z,96803.09
2023-02-19T19:02:21.678Z,96813.06
2023-02-19T19:04:54.516Z,96785.97
2023-02-19T19:07:22.606Z,96808.25
2023-02-19T19:09:52.294Z,96772.41
2023-02-19T19:12:21.615Z,96788.75
2023-02-19T19:14:50.473Z,96823.41
2023-02-19T19:17:18.020Z,96813.06
2023-02-19T19:19:48.118Z,96786.97
2023-02-19T19:22:22.636Z,96754.28
2023-02-19T19:24:50.323Z,96817.84
2023-02-19T19:27:19.363Z,96785.19
2023-02-19T19:29:49.642Z,96805.47
2023-02-19T19:32:17.527Z,96801.69
2023-02-19T19:34:45.796Z,96780.97
2023-02-19T19:37:13.370Z,96820.41
2023-02-19T19:39:42.931Z,96789.53
2023-02-19T19:42:14.561Z,96824.78
2023-02-19T19:44:44.381Z,96819.63
2023-02-19T19:47:13.411Z,96828.59
2023-02-19T19:49:44.366Z,96817.22
2023-02-19T19:52:12.063Z,96808.66
2023-02-19T19:54:43.441Z,96807.06
2023-02-19T19:57:12.975Z,96795.72
2023-02-19T19:59:40.965Z,96826.56
2023-02-19T20:02:13.313Z,96800.47
2023-02-19T20:04:44.934Z,96823.78
2023-02-19T20:07:12.733Z,96827.53
2023-02-19T20:09:40.393Z,96793.88
2023-02-19T20:12:08.634Z,96857.81
2023-02-19T20:14:41.847Z,96809.75
2023-02-19T20:17:13.095Z,96848.41
2023-02-19T20:19:40.912Z,96840.28
2023-02-19T20:22:08.576Z,96843.81
2023-02-19T20:24:36.242Z,96843.81
2023-02-19T20:27:08.545Z,96831.28
2023-02-19T20:29:40.077Z,96842.03
2023-02-19T20:32:09.091Z,96837.84
2023-02-19T20:34:39.830Z,96813.91
2023-02-19T20:37:08.398Z,96793.78
2023-02-19T20:39:39.384Z,96841.41
2023-02-19T20:42:08.970Z,96861.31
2023-02-19T20:44:36.669Z,96868.28
2023-02-19T20:47:04.877Z,96822.88
2023-02-19T20:49:34.465Z,96859.13
2023-02-19T20:52:07.249Z,96857.13
2023-02-19T20:54:36.271Z,96855.53
2023-02-19T20:57:05.478Z,96856.75
2023-02-19T20:59:35.728Z,96868.69
2023-02-19T21:02:05.176Z,96851.13
2023-02-19T21:04:34.599Z,96829.19
2023-02-19T21:07:03.683Z,96794.94
2023-02-19T21:09:32.079Z,96825.84
2023-02-19T21:11:59.962Z,96813.00
2023-02-19T21:14:27.815Z,96863.44
2023-02-19T21:16:55.495Z,96855.09
2023-02-19T21:19:23.478Z,96863.47
2023-02-19T21:21:53.268Z,96851.13
2023-02-19T21:24:22.295Z,96864.66
2023-02-19T21:26:50.169Z,96816.81
2023-02-19T21:29:19.581Z,96842.28
2023-02-19T21:31:50.353Z,96871.72
2023-02-19T21:34:20.643Z,96851.56
2023-02-19T21:36:48.221Z,96854.53
2023-02-19T21:39:18.173Z,96869.63
2023-02-19T21:41:47.192Z,96866.38
2023-02-19T21:44:14.734Z,96866.75
2023-02-19T21:46:42.614Z,96833.63
2023-02-19T21:49:10.730Z,96884.41
2023-02-19T21:51:41.002Z,96879.84
2023-02-19T21:54:09.872Z,96877.13
2023-02-19T21:56:38.044Z,96884.28
2023-02-19T21:59:06.926Z,96893.38
2023-02-19T22:01:38.482Z,96896.72
2023-02-19T22:04:06.283Z,96898.50
2023-02-19T22:06:34.119Z,96868.03
2023-02-19T22:09:02.572Z,96888.19
2023-02-19T22:11:30.050Z,96886.75
2023-02-19T22:13:57.554Z,96864.97
2023-02-19T22:16:26.829Z,96886.41
2023-02-19T22:18:56.636Z,96887.38
2023-02-19T22:21:26.081Z,96890.94
2023-02-19T22:23:54.854Z,96889.56
2023-02-19T22:26:25.063Z,96865.16
2023-02-19T22:28:53.274Z,96882.44
2023-02-19T22:31:23.531Z,96880.16
2023-02-19T22:33:52.693Z,96863.81
2023-02-19T22:36:21.861Z,96879.59
2023-02-19T22:38:49.825Z,96892.50
2023-02-19T22:41:18.614Z,96894.28
2023-02-19T22:43:46.552Z,96884.88
2023-02-19T22:46:17.297Z,96877.50
2023-02-19T22:48:44.796Z,96861.19
2023-02-19T22:51:15.598Z,96873.09
2023-02-19T22:53:46.350Z,96874.94
2023-02-19T22:56:15.927Z,96847.25
2023-02-19T22:58:43.666Z,96879.84
2023-02-19T23:01:11.907Z,96874.28
2023-02-19T23:03:46.543Z,96881.75
2023-02-19T23:06:15.946Z,96855.31
2023-02-19T23:08:43.901Z,96882.75
2023-02-19T23:11:12.059Z,96874.50
2023-02-19T23:13:41.798Z,96857.91
2023-02-19T23:16:09.565Z,96856.56
2023-02-19T23:18:37.203Z,96852.28
2023-02-19T23:21:04.836Z,96852.97
2023-02-19T23:23:33.703Z,96871.63
2023-02-19T23:26:01.210Z,96865.47
2023-02-19T23:28:28.665Z,96849.41
2023-02-19T23:30:56.238Z,96864.31
2023-02-19T23:33:23.821Z,96866.53
2023-02-19T23:35:51.302Z,96868.56
2023-02-19T23:38:18.956Z,96858.19
2023-02-19T23:40:47.741Z,96816.25
2023-02-19T23:43:15.227Z,96857.97
2023-02-19T23:45:42.769Z,96853.25
2023-02-19T23:48:10.510Z,96841.50
2023-02-19T23:50:37.982Z,96852.88
2023-02-19T23:53:06.054Z,96853.06
2023-02-19T23:55:33.490Z,96817.56
2023-02-19T23:58:02.348Z,96843.97
